Time;durP1;ratioP1;P1;durP2;ratioP2;P2;SDS_P1;SDS_P2;PMS_P1;PMS_P2;Temp;Humidity;BMP_temperature;BMP_pressure;BME280_temperature;BME280_humidity;BME280_pressure;Samples;Min_cycle;Max_cycle;Signal;HPM_P1;HPM_P2
2023/10/14 00:02:05;;;;;;;0.00;0.00;;;11.20;99.90;;;;;;5068122;28;20036;-75
2023/10/14 00:04:32;;;;;;;0.10;0.10;;;11.20;99.90;;;;;;5088668;28;20024;-75
2023/10/14 00:07:05;;;;;;;0.10;0.10;;;11.20;99.90;;;;;;5088740;28;20145;-75
2023/10/14 00:09:34;;;;;;;1.67;1.65;;;11.20;99.90;;;;;;5087121;28;20521;-74
2023/10/14 00:12:03;;;;;;;0.10;0.10;;;11.20;99.90;;;;;;5087668;28;20123;-74
2023/10/14 00:14:28;;;;;;;0.00;0.00;;;11.10;99.90;;;;;;5089318;28;20757;-75
2023/10/14 00:16:54;;;;;;;1.45;1.38;;;11.20;99.90;;;;;;5090166;28;20063;-75
2023/10/14 00:19:24;;;;;;;4.38;4.18;;;11.20;99.90;;;;;;5088549;28;20107;-75
2023/10/14 00:21:50;;;;;;;5.40;5.20;;;11.10;99.90;;;;;;5089017;28;20402;-74
2023/10/14 00:24:28;;;;;;;0.10;0.10;;;11.10;99.90;;;;;;5096263;28;20016;-76
2023/10/14 00:26:55;;;;;;;0.10;0.10;;;11.10;99.90;;;;;;5091165;28;20076;-76
2023/10/14 00:29:21;;;;;;;0.10;0.10;;;11.10;99.90;;;;;;5092254;28;20232;-75
2023/10/14 00:31:51;;;;;;;0.10;0.10;;;11.10;99.90;;;;;;5088059;28;20528;-75
2023/10/14 00:34:22;;;;;;;0.20;0.20;;;11.00;99.90;;;;;;5093450;28;20015;-75
2023/10/14 00:36:56;;;;;;;0.10;0.10;;;11.00;99.90;;;;;;5093755;28;20028;-74
2023/10/14 00:39:28;;;;;;;0.10;0.10;;;11.00;99.90;;;;;;5097036;28;20008;-74
2023/10/14 00:42:00;;;;;;;0.10;0.10;;;11.00;99.90;;;;;;5095024;28;20097;-74
2023/10/14 00:44:26;;;;;;;32.25;23.77;;;11.00;99.90;;;;;;5096885;28;20084;-75
2023/10/14 00:46:54;;;;;;;0.00;0.00;;;11.00;99.90;;;;;;5095738;28;20099;-74
2023/10/14 00:49:31;;;;;;;0.10;0.10;;;11.00;99.90;;;;;;5098452;28;20666;-75
2023/10/14 00:52:00;;;;;;;0.00;0.00;;;11.00;99.90;;;;;;5085140;28;20028;-75
2023/10/14 00:54:53;;;;;;;0.15;0.15;;;11.00;99.90;;;;;;5100262;28;20064;-76
2023/10/14 00:59:47;;;;;;;0.10;0.10;;;10.10;99.90;;;;;;5055322;28;20029;-75
2023/10/14 01:02:14;;;;;;;0.10;0.10;;;10.90;99.90;;;;;;5053054;28;20105;-74
2023/10/14 01:04:47;;;;;;;0.10;0.10;;;10.90;99.90;;;;;;5050244;28;20029;-74
2023/10/14 01:07:13;;;;;;;0.10;0.10;;;10.80;99.90;;;;;;5047258;28;20040;-75
2023/10/14 01:15:04;;;;;;;0.00;0.00;;;9.20;99.90;;;;;;5051265;28;20087;-74
2023/10/14 01:17:30;;;;;;;0.30;0.30;;;10.70;99.90;;;;;;5050658;28;20128;-75
2023/10/14 01:20:46;;;;;;;0.10;0.10;;;10.70;99.90;;;;;;5050504;28;20167;-74
2023/10/14 01:22:51;;;;;;;0.10;0.10;;;10.70;99.90;;;;;;5030906;28;20551;-74
2023/10/14 01:25:18;;;;;;;0.10;0.10;;;10.90;99.90;;;;;;5052570;28;20024;-74
2023/10/14 01:27:47;;;;;;;0.10;0.10;;;10.60;99.90;;;;;;5062426;28;20507;-75
2023/10/14 01:30:20;;;;;;;1.20;1.15;;;10.60;99.90;;;;;;5096750;28;20260;-75
2023/10/14 01:32:49;;;;;;;0.10;0.10;;;10.60;99.90;;;;;;5097925;28;20044;-76
2023/10/14 01:35:52;;;;;;;0.00;0.00;;;10.50;99.90;;;;;;5098576;28;20032;-74
2023/10/14 01:38:11;;;;;;;5.03;4.75;;;10.50;99.90;;;;;;5099174;28;20321;-75
2023/10/14 01:40:40;;;;;;;0.10;0.10;;;10.40;99.90;;;;;;5099629;28;20727;-75
2023/10/14 01:43:10;;;;;;;0.10;0.10;;;10.30;99.90;;;;;;5100270;28;20024;-75
2023/10/14 01:48:25;;;;;;;0.10;0.10;;;10.20;99.90;;;;;;5096654;28;20032;-74
2023/10/14 01:50:55;;;;;;;0.00;0.00;;;10.20;99.90;;;;;;5090686;28;20024;-75
2023/10/14 01:53:27;;;;;;;0.00;0.00;;;10.20;99.90;;;;;;5095050;28;20022;-75
2023/10/14 01:55:55;;;;;;;5.05;4.85;;;10.10;99.90;;;;;;5093397;28;20020;-75
2023/10/14 01:58:30;;;;;;;0.00;0.00;;;10.10;99.90;;;;;;5091580;28;20016;-74
2023/10/14 02:01:15;;;;;;;0.00;0.00;;;10.00;99.90;;;;;;5096417;28;20024;-74
2023/10/14 02:03:44;;;;;;;0.10;0.10;;;10.00;99.90;;;;;;5097929;28;20024;-75
2023/10/14 02:08:52;;;;;;;0.10;0.10;;;10.00;99.90;;;;;;5095286;28;20031;-75
2023/10/14 02:11:21;;;;;;;0.03;0.03;;;10.10;99.90;;;;;;5094874;28;20070;-74
2023/10/14 02:13:51;;;;;;;0.00;0.00;;;10.10;99.90;;;;;;5093024;28;20043;-75
2023/10/14 02:16:29;;;;;;;0.30;0.30;;;10.00;99.90;;;;;;5096132;28;20021;-74
2023/10/14 02:19:36;;;;;;;0.10;0.10;;;10.00;99.90;;;;;;5105356;28;20038;-75
2023/10/14 02:21:48;;;;;;;0.00;0.00;;;10.00;99.90;;;;;;5094314;28;20036;-75
2023/10/14 02:24:15;;;;;;;0.00;0.00;;;9.90;99.90;;;;;;5102412;28;20506;-75
2023/10/14 02:26:43;;;;;;;0.00;0.00;;;9.90;99.90;;;;;;5097350;28;20072;-74
2023/10/14 02:29:15;;;;;;;0.00;0.00;;;9.70;99.90;;;;;;5097159;28;20024;-74
2023/10/14 02:31:43;;;;;;;0.00;0.00;;;9.90;99.90;;;;;;5093917;28;20070;-74
2023/10/14 02:34:09;;;;;;;0.10;0.10;;;9.90;99.90;;;;;;5094983;28;20017;-74
2023/10/14 02:36:48;;;;;;;0.00;0.00;;;9.90;99.90;;;;;;5090336;28;20133;-74
2023/10/14 02:39:14;;;;;;;0.10;0.10;;;9.90;99.90;;;;;;5095367;28;20012;-73
2023/10/14 02:41:44;;;;;;;0.03;0.03;;;9.90;99.90;;;;;;5072015;28;20471;-74
2023/10/14 02:46:43;;;;;;;7.22;6.80;;;9.90;99.90;;;;;;5096201;28;20028;-76
2023/10/14 02:49:15;;;;;;;0.05;0.05;;;9.90;99.90;;;;;;5097576;28;20028;-76
2023/10/14 02:51:42;;;;;;;0.00;0.00;;;9.90;99.90;;;;;;5095240;28;20020;-74
2023/10/14 02:54:26;;;;;;;11.95;11.35;;;11.00;99.90;;;;;;5089843;28;20213;-74
2023/10/14 02:57:00;;;;;;;0.10;0.10;;;10.20;99.90;;;;;;5096206;28;20103;-74
2023/10/14 02:59:46;;;;;;;0.08;0.08;;;9.90;99.90;;;;;;5094219;28;20422;-74
2023/10/14 03:02:24;;;;;;;0.00;0.00;;;9.80;99.90;;;;;;5091360;28;20241;-74
2023/10/14 03:07:30;;;;;;;0.10;0.10;;;9.70;99.90;;;;;;5094010;28;20421;-76
2023/10/14 03:10:09;;;;;;;0.15;0.15;;;9.60;99.90;;;;;;5076955;28;20058;-75
2023/10/14 03:12:40;;;;;;;0.03;0.03;;;6.90;99.90;;;;;;5090284;28;20048;-75
2023/10/14 03:15:18;;;;;;;0.00;0.00;;;9.60;99.90;;;;;;5072678;28;20035;-76
2023/10/14 03:17:58;;;;;;;0.00;0.00;;;8.50;99.90;;;;;;5094136;28;20494;-75
2023/10/14 03:23:26;;;;;;;0.00;0.00;;;9.60;99.90;;;;;;5096569;28;20032;-75
2023/10/14 03:26:20;;;;;;;0.00;0.00;;;9.60;99.90;;;;;;5093004;28;20038;-75
2023/10/14 03:28:50;;;;;;;0.05;0.05;;;9.70;99.90;;;;;;5096441;28;20044;-76
2023/10/14 03:31:19;;;;;;;0.00;0.00;;;9.60;99.90;;;;;;5091614;28;20297;-76
2023/10/14 03:33:47;;;;;;;0.10;0.10;;;9.60;99.90;;;;;;5090549;28;20087;-76
2023/10/14 03:36:17;;;;;;;0.00;0.00;;;9.50;99.90;;;;;;5098073;28;20063;-76
2023/10/14 03:39:18;;;;;;;0.00;0.00;;;9.50;99.90;;;;;;5099045;28;20012;-76
2023/10/14 03:41:42;;;;;;;0.10;0.10;;;9.40;99.90;;;;;;5095840;28;20024;-75
2023/10/14 03:44:14;;;;;;;0.00;0.00;;;9.50;99.90;;;;;;5077085;28;20068;-76
2023/10/14 03:46:43;;;;;;;0.00;0.00;;;9.50;99.90;;;;;;5095433;28;20020;-76
2023/10/14 03:49:26;;;;;;;0.10;0.10;;;9.40;99.90;;;;;;5079645;28;20032;-75
2023/10/14 03:51:56;;;;;;;0.43;0.43;;;9.40;99.90;;;;;;5098309;28;20032;-76
2023/10/14 03:54:24;;;;;;;0.00;0.00;;;9.30;99.90;;;;;;5094813;28;20016;-76
2023/10/14 03:56:50;;;;;;;0.10;0.10;;;9.40;99.90;;;;;;5094168;28;20128;-75
2023/10/14 03:59:22;;;;;;;0.05;0.05;;;9.40;99.90;;;;;;5093997;28;20024;-75
2023/10/14 04:04:42;;;;;;;0.00;0.00;;;9.40;99.90;;;;;;5009267;28;20094;-75
2023/10/14 04:14:54;;;;;;;0.00;0.00;;;9.50;99.90;;;;;;5013978;28;20141;-75
2023/10/14 04:17:22;;;;;;;0.10;0.10;;;9.50;99.90;;;;;;5010572;28;20022;-76
2023/10/14 04:19:53;;;;;;;10.90;10.43;;;9.40;99.90;;;;;;5015151;28;20032;-76
2023/10/14 04:22:38;;;;;;;0.10;0.10;;;9.40;99.90;;;;;;5017516;28;20091;-76
2023/10/14 04:27:54;;;;;;;0.00;0.00;;;9.30;99.90;;;;;;5015627;28;20244;-77
2023/10/14 04:30:38;;;;;;;0.00;0.00;;;8.90;99.90;;;;;;5015877;28;20033;-75
2023/10/14 04:33:20;;;;;;;0.10;0.10;;;9.20;99.90;;;;;;5010335;28;20064;-76
2023/10/14 04:36:22;;;;;;;0.47;0.47;;;9.30;99.90;;;;;;5013872;28;20103;-75
2023/10/14 04:38:47;;;;;;;0.10;0.10;;;9.20;99.90;;;;;;5014184;28;20018;-76
2023/10/14 04:41:14;;;;;;;0.75;0.75;;;9.20;99.90;;;;;;5041571;28;20054;-76
2023/10/14 04:44:00;;;;;;;0.10;0.10;;;9.20;99.90;;;;;;5099232;28;20031;-76
2023/10/14 04:46:32;;;;;;;0.65;0.65;;;9.30;99.90;;;;;;5096420;28;20053;-76
2023/10/14 04:49:04;;;;;;;0.03;0.03;;;9.20;99.90;;;;;;5092834;28;20122;-76
2023/10/14 04:51:37;;;;;;;0.00;0.00;;;9.30;99.90;;;;;;5086756;28;20051;-75
2023/10/14 04:54:09;;;;;;;0.00;0.00;;;9.30;99.90;;;;;;5090748;28;20043;-76
2023/10/14 04:56:36;;;;;;;0.00;0.00;;;9.20;99.90;;;;;;5089294;28;20040;-76
2023/10/14 04:59:05;;;;;;;2.03;1.95;;;9.30;99.90;;;;;;5079196;28;20024;-76
2023/10/14 05:01:48;;;;;;;0.00;0.00;;;9.30;99.90;;;;;;5096195;28;20100;-76
2023/10/14 05:04:19;;;;;;;0.00;0.00;;;9.20;99.90;;;;;;5094591;28;20256;-76
2023/10/14 05:06:47;;;;;;;0.00;0.00;;;9.20;99.90;;;;;;5069168;28;20024;-76
2023/10/14 05:09:29;;;;;;;0.00;0.00;;;9.20;99.90;;;;;;5087476;28;20062;-76
2023/10/14 05:11:55;;;;;;;0.00;0.00;;;9.20;99.90;;;;;;5067647;28;20070;-75
2023/10/14 05:14:34;;;;;;;0.10;0.10;;;9.20;99.90;;;;;;5087046;28;20032;-75
2023/10/14 05:17:14;;;;;;;0.10;0.10;;;9.20;99.90;;;;;;5067252;28;20166;-76
2023/10/14 05:19:43;;;;;;;0.00;0.00;;;9.20;99.90;;;;;;5091093;28;20096;-76
2023/10/14 05:22:13;;;;;;;0.10;0.10;;;9.30;99.90;;;;;;5087076;28;20081;-75
2023/10/14 05:24:45;;;;;;;0.10;0.10;;;9.30;99.90;;;;;;5070650;28;20035;-75
2023/10/14 05:27:11;;;;;;;0.05;0.05;;;9.30;99.90;;;;;;5090925;28;20012;-76
2023/10/14 05:29:37;;;;;;;0.10;0.10;;;9.30;99.90;;;;;;5089231;28;20511;-75
2023/10/14 05:32:10;;;;;;;0.20;0.20;;;9.30;99.90;;;;;;5085983;28;20051;-75
2023/10/14 05:34:43;;;;;;;0.05;0.05;;;9.40;99.90;;;;;;5088274;28;20032;-75
2023/10/14 05:37:14;;;;;;;0.10;0.10;;;9.40;99.90;;;;;;5085388;28;20092;-75
2023/10/14 05:39:43;;;;;;;0.10;0.10;;;9.40;99.90;;;;;;5090568;28;20024;-76
2023/10/14 05:42:17;;;;;;;0.10;0.10;;;9.40;99.90;;;;;;5089867;28;20032;-76
2023/10/14 05:44:47;;;;;;;;;;;9.40;99.90;;;;;;5086461;28;20024;-75
2023/10/14 05:47:19;;;;;;;0.10;0.10;;;9.50;99.90;;;;;;5090674;28;20262;-76
2023/10/14 05:49:46;;;;;;;13.80;12.73;;;9.60;99.90;;;;;;5090190;28;20020;-75
2023/10/14 05:52:12;;;;;;;0.10;0.10;;;9.60;99.90;;;;;;5087437;28;20103;-76
2023/10/14 05:54:45;;;;;;;11.13;10.15;;;9.60;99.90;;;;;;5086892;28;20030;-75
2023/10/14 05:57:11;;;;;;;0.10;0.10;;;9.70;99.90;;;;;;5088855;28;20106;-75
2023/10/14 05:59:41;;;;;;;0.30;0.30;;;9.70;99.90;;;;;;5090295;28;20050;-77
2023/10/14 06:02:08;;;;;;;0.10;0.10;;;9.80;99.90;;;;;;5094926;28;20027;-76
2023/10/14 06:04:42;;;;;;;9.55;8.95;;;9.80;99.90;;;;;;5088226;28;20036;-76
2023/10/14 06:07:12;;;;;;;0.10;0.10;;;9.90;99.90;;;;;;5089432;28;20225;-76
2023/10/14 06:09:45;;;;;;;0.10;0.10;;;10.00;99.90;;;;;;5090624;28;20016;-76
2023/10/14 06:12:16;;;;;;;0.10;0.10;;;7.10;99.90;;;;;;5093079;28;20384;-76
2023/10/14 06:14:44;;;;;;;0.10;0.10;;;10.20;99.90;;;;;;5090303;28;20032;-76
2023/10/14 06:17:14;;;;;;;0.10;0.10;;;10.20;99.90;;;;;;5092731;28;20050;-76
2023/10/14 06:19:41;;;;;;;0.20;0.20;;;10.40;99.90;;;;;;5085870;28;20016;-74
2023/10/14 06:22:07;;;;;;;0.10;0.10;;;10.20;99.90;;;;;;5091587;28;20028;-76
2023/10/14 06:24:34;;;;;;;0.20;0.20;;;10.30;99.90;;;;;;5089815;28;20296;-76
2023/10/14 06:27:15;;;;;;;0.10;0.10;;;10.30;99.90;;;;;;5089310;28;20077;-76
2023/10/14 06:29:42;;;;;;;0.20;0.20;;;10.30;99.90;;;;;;5093184;28;20059;-76
2023/10/14 06:32:08;;;;;;;0.10;0.10;;;10.40;99.90;;;;;;5092571;28;20052;-76
2023/10/14 06:34:58;;;;;;;2.05;1.95;;;9.80;99.90;;;;;;5091861;28;20077;-76
2023/10/14 06:37:27;;;;;;;0.20;0.20;;;9.90;99.90;;;;;;5096065;28;20538;-75
2023/10/14 06:39:57;;;;;;;0.20;0.20;;;10.80;99.90;;;;;;5100125;28;20011;-76
2023/10/14 06:42:45;;;;;;;0.10;0.10;;;10.90;99.90;;;;;;5051711;28;20036;-76
2023/10/14 06:45:18;;;;;;;0.10;0.10;;;11.00;99.90;;;;;;5050172;28;20543;-75
2023/10/14 06:47:51;;;;;;;0.13;0.13;;;11.10;99.90;;;;;;5043678;28;20574;-76
2023/10/14 06:50:25;;;;;;;0.10;0.10;;;11.20;99.90;;;;;;5027319;28;20037;-75
2023/10/14 06:53:00;;;;;;;3.75;3.50;;;11.10;99.90;;;;;;5043709;28;20025;-76
2023/10/14 06:55:28;;;;;;;0.10;0.10;;;11.40;99.90;;;;;;5046283;28;20028;-76
2023/10/14 06:57:55;;;;;;;1.95;1.85;;;11.50;99.90;;;;;;5042269;28;20055;-76
2023/10/14 07:00:26;;;;;;;0.20;0.20;;;11.60;99.90;;;;;;5040184;28;20032;-75
2023/10/14 07:02:54;;;;;;;0.10;0.10;;;11.90;99.90;;;;;;5044896;28;20605;-76
2023/10/14 07:05:26;;;;;;;0.17;0.17;;;11.80;99.90;;;;;;5054005;28;20033;-76
2023/10/14 07:07:52;;;;;;;0.10;0.10;;;12.00;99.90;;;;;;5031547;28;20044;-77
2023/10/14 07:10:27;;;;;;;0.20;0.20;;;12.10;99.90;;;;;;5047202;28;20025;-75
2023/10/14 07:12:57;;;;;;;0.20;0.20;;;12.30;99.90;;;;;;5044001;28;20499;-75
2023/10/14 07:15:31;;;;;;;0.70;0.70;;;12.40;99.90;;;;;;5047537;28;20033;-77
2023/10/14 07:17:58;;;;;;;;;;;12.60;99.90;;;;;;5034554;28;20033;-76
2023/10/14 07:20:31;;;;;;;0.10;0.10;;;12.70;99.90;;;;;;5042033;28;19948;-78
2023/10/14 07:23:02;;;;;;;2.25;2.17;;;12.80;99.90;;;;;;5041736;28;20044;-81
2023/10/14 07:25:33;;;;;;;0.63;0.63;;;13.00;99.90;;;;;;5038544;28;20061;-77
2023/10/14 07:28:00;;;;;;;0.20;0.20;;;13.20;99.90;;;;;;5080013;28;20217;-83
2023/10/14 07:30:27;;;;;;;0.10;0.10;;;13.30;99.90;;;;;;5080585;28;20043;-78
2023/10/14 07:32:55;;;;;;;3.63;2.90;;;13.20;99.90;;;;;;5061603;28;20429;-76
2023/10/14 07:35:22;;;;;;;0.40;0.40;;;13.70;99.90;;;;;;5080134;28;20479;-77
2023/10/14 07:37:49;;;;;;;0.20;0.20;;;13.80;99.90;;;;;;5080490;28;20076;-85
2023/10/14 07:40:31;;;;;;;3.50;3.30;;;14.00;99.90;;;;;;5080184;28;20016;-80
2023/10/14 07:43:10;;;;;;;0.10;0.10;;;14.10;99.90;;;;;;5079165;28;20055;-76
2023/10/14 07:45:43;;;;;;;0.75;0.75;;;14.20;99.90;;;;;;5079694;28;20254;-83
2023/10/14 07:48:11;;;;;;;0.10;0.10;;;14.40;99.90;;;;;;5079004;28;20108;-79
2023/10/14 07:50:46;;;;;;;0.10;0.10;;;14.60;99.90;;;;;;5079225;28;20626;-77
2023/10/14 07:53:13;;;;;;;0.68;0.68;;;14.80;99.90;;;;;;5079378;28;20030;-76
2023/10/14 07:55:39;;;;;;;0.10;0.10;;;14.90;99.90;;;;;;5060403;28;20024;-87
2023/10/14 07:58:08;;;;;;;0.22;0.22;;;15.10;99.90;;;;;;5078801;28;20085;-81
2023/10/14 08:00:50;;;;;;;0.10;0.10;;;15.30;99.90;;;;;;5060984;28;20108;-74
2023/10/14 08:03:19;;;;;;;0.10;0.10;;;15.50;99.90;;;;;;5078712;28;20312;-76
2023/10/14 08:05:54;;;;;;;1.20;1.20;;;15.70;99.90;;;;;;5060414;28;20020;-88
2023/10/14 08:08:21;;;;;;;0.10;0.10;;;16.40;99.90;;;;;;5078608;28;20027;-76
2023/10/14 08:10:49;;;;;;;0.10;0.10;;;16.10;99.90;;;;;;5078732;28;20144;-75
2023/10/14 08:13:21;;;;;;;0.28;0.28;;;16.20;99.90;;;;;;5078832;28;20150;-75
2023/10/14 08:15:51;;;;;;;0.10;0.10;;;16.40;99.90;;;;;;5061174;28;20028;-80
2023/10/14 08:18:19;;;;;;;1.38;1.27;;;16.40;99.90;;;;;;5078581;28;20031;-75
2023/10/14 08:20:45;;;;;;;0.17;0.17;;;16.50;99.90;;;;;;5059715;28;20582;-76
2023/10/14 08:23:12;;;;;;;0.25;0.25;;;16.70;99.90;;;;;;5078809;28;20390;-79
2023/10/14 08:25:41;;;;;;;0.52;0.52;;;16.60;99.90;;;;;;5079138;28;20228;-77
2023/10/14 08:28:08;;;;;;;0.10;0.10;;;17.10;99.90;;;;;;5081223;28;20024;-75
2023/10/14 08:30:45;;;;;;;10.65;2.08;;;17.30;99.90;;;;;;5079606;28;20206;-75
2023/10/14 08:33:14;;;;;;;0.57;0.57;;;17.40;99.90;;;;;;5079780;28;20036;-74
2023/10/14 08:35:44;;;;;;;0.10;0.10;;;;;;;;;;5077669;28;20107;-75
2023/10/14 08:38:17;;;;;;;0.20;0.20;;;17.70;99.90;;;;;;5078373;28;20028;-75
2023/10/14 08:40:49;;;;;;;11.65;3.67;;;17.90;99.90;;;;;;5078006;28;20024;-75
2023/10/14 08:43:21;;;;;;;2.58;1.30;;;18.00;99.90;;;;;;5077352;28;20028;-75
2023/10/14 08:45:48;;;;;;;2.75;1.95;;;18.20;99.90;;;;;;5078238;28;20027;-81
2023/10/14 08:48:18;;;;;;;0.45;0.45;;;18.30;99.90;;;;;;5077787;28;20031;-75
2023/10/14 08:50:45;;;;;;;0.10;0.10;;;18.30;99.90;;;;;;5077226;28;20024;-78
2023/10/14 08:53:13;;;;;;;0.20;0.20;;;18.50;99.90;;;;;;5076824;28;20084;-79
2023/10/14 08:55:40;;;;;;;0.32;0.32;;;18.60;99.90;;;;;;5077073;28;20529;-76
2023/10/14 08:58:07;;;;;;;0.20;0.20;;;18.50;99.90;;;;;;5077962;28;20024;-75
2023/10/14 09:00:37;;;;;;;0.10;0.10;;;17.80;99.90;;;;;;5060283;28;20415;-75
2023/10/14 09:03:09;;;;;;;14.02;2.75;;;18.80;99.90;;;;;;5077335;28;20031;-76
2023/10/14 09:05:40;;;;;;;0.10;0.10;;;18.20;99.90;;;;;;5077259;28;20035;-76
2023/10/14 09:08:09;;;;;;;0.20;0.20;;;19.20;99.90;;;;;;5077651;28;20076;-74
2023/10/14 09:10:38;;;;;;;0.30;0.30;;;19.10;99.90;;;;;;5077152;28;20204;-75
2023/10/14 09:13:10;;;;;;;0.45;0.45;;;19.00;99.90;;;;;;5076937;28;20012;-77
2023/10/14 09:15:39;;;;;;;2.80;1.75;;;19.50;99.90;;;;;;5077478;28;20021;-76
2023/10/14 09:18:27;;;;;;;0.73;0.73;;;19.70;99.90;;;;;;5077410;28;20016;-74
2023/10/14 09:20:54;;;;;;;0.43;0.43;;;18.10;99.90;;;;;;5059495;28;20092;-77
2023/10/14 09:23:44;;;;;;;0.10;0.10;;;20.10;99.90;;;;;;5058822;28;20081;-76
2023/10/14 09:26:10;;;;;;;0.10;0.10;;;19.10;99.90;;;;;;5076857;28;20024;-76
2023/10/14 09:28:40;;;;;;;0.10;0.10;;;20.30;99.90;;;;;;5058617;28;20032;-78
2023/10/14 09:31:08;;;;;;;0.10;0.10;;;20.40;99.90;;;;;;5078395;28;20541;-79
2023/10/14 09:33:42;;;;;;;0.30;0.30;;;20.40;99.90;;;;;;5078659;28;20285;-75
2023/10/14 09:36:18;;;;;;;0.10;0.10;;;20.50;99.90;;;;;;5082267;28;20028;-77
2023/10/14 09:38:48;;;;;;;0.32;0.32;;;20.70;99.90;;;;;;5083576;28;20175;-76
2023/10/14 09:41:15;;;;;;;0.55;0.55;;;21.00;99.90;;;;;;5082131;28;20028;-75
2023/10/14 09:43:48;;;;;;;0.10;0.10;;;20.90;99.90;;;;;;5063342;28;20127;-76
2023/10/14 09:46:17;;;;;;;2.53;1.75;;;21.20;99.90;;;;;;5064070;28;20565;-75
2023/10/14 09:48:44;;;;;;;3.55;3.25;;;21.50;99.90;;;;;;5062611;28;20563;-77
2023/10/14 09:51:12;;;;;;;3.03;2.67;;;21.70;99.90;;;;;;5062344;28;20063;-76
2023/10/14 09:53:39;;;;;;;0.25;0.25;;;21.80;99.90;;;;;;5062829;28;20035;-76
2023/10/14 09:56:13;;;;;;;0.30;0.30;;;22.00;99.90;;;;;;5081370;28;20494;-82
2023/10/14 09:58:41;;;;;;;23.05;2.22;;;22.10;99.90;;;;;;5082281;28;20328;-76
2023/10/14 10:01:15;;;;;;;0.10;0.10;;;22.20;99.90;;;;;;5082648;28;20089;-78
2023/10/14 10:04:10;;;;;;;2.03;1.45;;;22.40;99.90;;;;;;5082594;28;20051;-75
2023/10/14 10:07:04;;;;;;;0.73;0.73;;;22.90;99.90;;;;;;5080895;28;20494;-75
2023/10/14 10:09:49;;;;;;;0.20;0.20;;;22.70;99.60;;;;;;5080844;28;20335;-77
2023/10/14 10:12:17;;;;;;;1.27;1.25;;;23.00;99.50;;;;;;5062741;28;20304;-75
2023/10/14 10:14:44;;;;;;;0.10;0.10;;;23.00;98.30;;;;;;5080238;28;20216;-74
2023/10/14 10:17:11;;;;;;;0.52;0.52;;;23.20;98.80;;;;;;5080761;28;20461;-74
2023/10/14 10:20:17;;;;;;;0.10;0.10;;;23.40;98.40;;;;;;5080480;28;20026;-78
2023/10/14 10:22:56;;;;;;;1.35;1.20;;;23.30;97.20;;;;;;5061905;28;20384;-81
2023/10/14 10:25:47;;;;;;;0.82;0.73;;;23.60;96.70;;;;;;5080822;28;20020;-76
2023/10/14 10:28:27;;;;;;;1.00;1.00;;;23.80;96.40;;;;;;5080762;28;20024;-82
2023/10/14 10:31:03;;;;;;;0.20;0.20;;;24.10;95.80;;;;;;5080607;28;20032;-83
2023/10/14 10:34:02;;;;;;;0.10;0.10;;;24.20;93.60;;;;;;5080671;28;20367;-79
2023/10/14 10:36:30;;;;;;;0.63;0.60;;;24.40;93.50;;;;;;5001020;28;20048;-76
2023/10/14 10:39:15;;;;;;;0.10;0.10;;;23.60;92.20;;;;;;5016629;28;20037;-80
2023/10/14 10:41:42;;;;;;;6.13;5.00;;;24.70;91.90;;;;;;5016133;28;20045;-81
2023/10/14 10:44:11;;;;;;;3.35;2.25;;;24.90;91.00;;;;;;5016948;28;20056;-79
2023/10/14 10:46:46;;;;;;;0.10;0.10;;;25.00;91.30;;;;;;5015492;28;20239;-78
2023/10/14 10:49:14;;;;;;;0.10;0.10;;;25.00;90.10;;;;;;5016604;28;20105;-79
2023/10/14 10:52:08;;;;;;;0.20;0.20;;;25.10;88.40;;;;;;5016765;28;20029;-76
2023/10/14 10:54:35;;;;;;;0.10;0.10;;;27.90;90.20;;;;;;5016493;28;20049;-80
2023/10/14 10:57:02;;;;;;;0.40;0.40;;;25.30;87.20;;;;;;5000401;28;20022;-75
2023/10/14 10:59:29;;;;;;;0.00;0.00;;;25.50;87.50;;;;;;5016436;28;20080;-82
2023/10/14 11:01:56;;;;;;;1.55;1.45;;;25.70;86.50;;;;;;5016612;28;20064;-76
2023/10/14 11:04:22;;;;;;;0.28;0.28;;;25.50;85.50;;;;;;5016454;28;20480;-75
2023/10/14 11:06:51;;;;;;;0.38;0.38;;;25.60;85.40;;;;;;5016527;28;20048;-77
2023/10/14 11:09:17;;;;;;;0.35;0.35;;;25.60;85.20;;;;;;5016593;28;20022;-75
2023/10/14 11:11:43;;;;;;;0.10;0.10;;;25.70;84.20;;;;;;5003805;28;20025;-77
2023/10/14 11:14:20;;;;;;;4.00;0.52;;;25.80;83.60;;;;;;5081845;28;20494;-81
2023/10/14 11:16:53;;;;;;;0.20;0.20;;;26.00;83.00;;;;;;5081902;28;20209;-74
2023/10/14 11:19:22;;;;;;;0.43;0.35;;;25.90;82.90;;;;;;5080226;28;20077;-80
2023/10/14 11:21:50;;;;;;;0.10;0.10;;;25.90;82.30;;;;;;5079393;28;20342;-76
2023/10/14 11:24:16;;;;;;;0.00;0.00;;;26.00;82.00;;;;;;5079560;28;20028;-80
2023/10/14 11:26:44;;;;;;;3.70;1.08;;;26.10;81.90;;;;;;5079636;28;20020;-74
2023/10/14 11:29:13;;;;;;;0.32;0.28;;;26.10;81.80;;;;;;5078962;28;20028;-75
2023/10/14 11:31:43;;;;;;;0.10;0.10;;;26.20;81.90;;;;;;5079033;28;20056;-75
2023/10/14 11:34:14;;;;;;;0.20;0.20;;;26.30;80.30;;;;;;5061053;28;20698;-75
2023/10/14 11:36:44;;;;;;;0.10;0.10;;;26.40;80.60;;;;;;5079031;28;20288;-80
2023/10/14 11:39:13;;;;;;;0.13;0.13;;;26.60;80.20;;;;;;5078721;28;20347;-81
2023/10/14 11:41:42;;;;;;;0.50;0.45;;;26.60;80.00;;;;;;5079099;28;20292;-75
2023/10/14 11:44:08;;;;;;;0.10;0.10;;;26.70;80.30;;;;;;5078648;28;20092;-76
2023/10/14 11:46:40;;;;;;;0.20;0.20;;;26.60;78.80;;;;;;5079706;28;20107;-78
2023/10/14 11:49:10;;;;;;;1.05;0.60;;;26.60;78.80;;;;;;5079987;28;20012;-75
2023/10/14 11:51:43;;;;;;;0.93;0.20;;;26.50;78.70;;;;;;5079489;28;20509;-80
2023/10/14 11:54:13;;;;;;;0.10;0.10;;;25.30;77.50;;;;;;5079168;28;20059;-79
2023/10/14 11:56:42;;;;;;;0.65;0.55;;;26.50;77.80;;;;;;5078905;28;20035;-78
2023/10/14 11:59:16;;;;;;;0.10;0.10;;;26.50;77.80;;;;;;5078551;28;20071;-74
2023/10/14 12:01:45;;;;;;;0.00;0.00;;;26.60;77.20;;;;;;5078214;28;20055;-76
2023/10/14 12:04:14;;;;;;;0.10;0.10;;;26.60;77.40;;;;;;5078521;28;20066;-77
2023/10/14 12:06:41;;;;;;;0.10;0.10;;;26.70;77.80;;;;;;5078235;28;20105;-76
2023/10/14 12:09:06;;;;;;;0.10;0.10;;;26.70;77.10;;;;;;5078611;28;20024;-76
2023/10/14 12:11:41;;;;;;;0.08;0.08;;;26.60;77.60;;;;;;5078269;28;20034;-75
2023/10/14 12:14:16;;;;;;;0.20;0.20;;;26.80;76.80;;;;;;5078501;28;20418;-75
2023/10/14 12:16:42;;;;;;;0.15;0.15;;;26.90;76.20;;;;;;5078512;28;20050;-78
2023/10/14 12:19:11;;;;;;;0.10;0.10;;;27.30;76.90;;;;;;5060318;28;20540;-84
2023/10/14 12:21:38;;;;;;;0.20;0.20;;;27.10;76.40;;;;;;5078298;28;20300;-79
2023/10/14 12:24:04;;;;;;;10.60;1.38;;;27.30;75.50;;;;;;5077871;28;20054;-75
2023/10/14 12:26:33;;;;;;;0.10;0.10;;;27.60;75.60;;;;;;5077964;28;20112;-75
2023/10/14 12:28:59;;;;;;;0.00;0.00;;;26.10;73.70;;;;;;5059055;28;20454;-75
2023/10/14 12:31:27;;;;;;;0.00;0.00;;;27.70;74.20;;;;;;5077561;28;20040;-75
2023/10/14 12:33:54;;;;;;;0.00;0.00;;;27.70;75.00;;;;;;5077903;28;20020;-77
2023/10/14 12:36:20;;;;;;;4.25;3.20;;;30.40;76.30;;;;;;5077818;28;20016;-75
2023/10/14 12:38:45;;;;;;;0.10;0.10;;;28.10;73.90;;;;;;5078201;28;20253;-76
2023/10/14 12:41:21;;;;;;;0.20;0.20;;;28.00;73.50;;;;;;5077748;28;20546;-76
2023/10/14 12:43:51;;;;;;;0.00;0.00;;;28.10;73.40;;;;;;5077923;28;20028;-76
2023/10/14 12:48:43;;;;;;;0.00;0.00;;;28.10;72.40;;;;;;5078051;28;20023;-75
2023/10/14 12:51:18;;;;;;;0.10;0.10;;;28.00;72.80;;;;;;5059415;28;20354;-75
2023/10/14 12:53:47;;;;;;;0.00;0.00;;;28.00;72.50;;;;;;5077565;28;20054;-76
2023/10/14 12:56:17;;;;;;;0.45;0.35;;;28.30;72.30;;;;;;5077544;28;20378;-74
2023/10/14 12:58:44;;;;;;;0.00;0.00;;;28.40;72.40;;;;;;5077177;28;20016;-75
2023/10/14 13:01:20;;;;;;;0.00;0.00;;;28.50;71.10;;;;;;5058955;28;20471;-75
2023/10/14 13:03:52;;;;;;;2.50;0.52;;;28.50;71.60;;;;;;5077079;28;20111;-75
2023/10/14 13:06:22;;;;;;;;;;;32.00;73.60;;;;;;5059195;28;20104;-75
2023/10/14 13:08:52;;;;;;;0.20;0.20;;;28.60;71.40;;;;;;5076380;28;19904;-77
2023/10/14 13:11:18;;;;;;;0.10;0.10;;;28.70;70.60;;;;;;5077486;28;20053;-75
2023/10/14 13:13:50;;;;;;;0.00;0.00;;;28.50;71.00;;;;;;5077215;28;20028;-75
2023/10/14 13:16:24;;;;;;;0.10;0.10;;;28.50;71.20;;;;;;5059128;28;20103;-76
2023/10/14 13:18:50;;;;;;;0.70;0.55;;;28.10;70.10;;;;;;5077499;28;20211;-76
2023/10/14 13:21:19;;;;;;;0.57;0.57;;;28.80;70.30;;;;;;5059831;28;20119;-75
2023/10/14 13:23:46;;;;;;;0.20;0.20;;;28.70;70.30;;;;;;5060478;28;20522;-79
2023/10/14 13:26:15;;;;;;;0.00;0.00;;;28.80;70.10;;;;;;5078409;28;20575;-76
2023/10/14 13:28:45;;;;;;;0.00;0.00;;;28.90;70.00;;;;;;5079958;28;20043;-76
2023/10/14 13:31:11;;;;;;;0.45;0.28;;;;;;;;;;5060742;28;20040;-74
2023/10/14 13:33:37;;;;;;;0.55;0.52;;;29.00;69.30;;;;;;5077495;28;20028;-76
2023/10/14 13:36:09;;;;;;;0.40;0.22;;;28.90;70.40;;;;;;5077531;28;20016;-78
2023/10/14 13:38:41;;;;;;;0.55;0.55;;;28.80;69.90;;;;;;5077381;28;20028;-75
2023/10/14 13:41:14;;;;;;;0.10;0.10;;;28.90;70.00;;;;;;5077058;28;20178;-78
2023/10/14 13:43:46;;;;;;;0.10;0.10;;;29.00;70.00;;;;;;5077075;28;20335;-80
2023/10/14 13:46:12;;;;;;;10.93;1.00;;;29.10;69.50;;;;;;5076909;28;20012;-75
2023/10/14 13:48:38;;;;;;;0.43;0.43;;;29.70;70.40;;;;;;5059091;28;20039;-78
2023/10/14 13:51:05;;;;;;;0.15;0.15;;;28.80;69.70;;;;;;5078316;28;20541;-76